sensor_id;sensor_type;location;lat;lon;timestamp;pressure;altitude;pressure_sealevel;temperature;humidity
70982;BME280;58640;51.320;9.456;2022-11-20T00:01:17;99068.06;;;-5.44;89.90
70982;BME280;58640;51.320;9.456;2022-11-20T00:03:45;99064.91;;;-5.35;89.51
70982;BME280;58640;51.320;9.456;2022-11-20T00:06:13;99068.66;;;-5.39;90.72
70982;BME280;58640;51.320;9.456;2022-11-20T00:08:39;99066.59;;;-5.34;90.76
70982;BME280;58640;51.320;9.456;2022-11-20T00:11:12;99070.84;;;-5.32;90.89
70982;BME280;58640;51.320;9.456;2022-11-20T00:13:38;99052.56;;;-5.33;90.45
70982;BME280;58640;51.320;9.456;2022-11-20T00:16:06;99055.19;;;-5.33;90.71
70982;BME280;58640;51.320;9.456;2022-11-20T00:18:35;99053.66;;;-5.37;90.99
70982;BME280;58640;51.320;9.456;2022-11-20T00:21:10;99055.28;;;-5.35;91.36
70982;BME280;58640;51.320;9.456;2022-11-20T00:23:35;99047.59;;;-5.38;91.05
70982;BME280;58640;51.320;9.456;2022-11-20T00:26:09;99048.16;;;-5.33;90.57
70982;BME280;58640;51.320;9.456;2022-11-20T00:28:35;99043.84;;;-5.34;91.17
70982;BME280;58640;51.320;9.456;2022-11-20T00:31:05;99045.81;;;-5.37;91.20
70982;BME280;58640;51.320;9.456;2022-11-20T00:33:32;99057.47;;;-5.27;91.10
70982;BME280;58640;51.320;9.456;2022-11-20T00:36:06;99064.22;;;-5.39;91.19
70982;BME280;58640;51.320;9.456;2022-11-20T00:38:32;99060.69;;;-5.38;91.46
70982;BME280;58640;51.320;9.456;2022-11-20T00:41:00;99045.97;;;-5.40;91.75
70982;BME280;58640;51.320;9.456;2022-11-20T00:43:26;99055.59;;;-5.41;91.38
70982;BME280;58640;51.320;9.456;2022-11-20T00:46:01;99047.59;;;-5.38;91.34
70982;BME280;58640;51.320;9.456;2022-11-20T00:48:27;99046.56;;;-5.35;91.75
70982;BME280;58640;51.320;9.456;2022-11-20T00:50:53;99048.44;;;-5.37;91.85
70982;BME280;58640;51.320;9.456;2022-11-20T00:53:18;99050.22;;;-5.38;91.82
70982;BME280;58640;51.320;9.456;2022-11-20T00:55:55;99039.38;;;-5.32;90.98
70982;BME280;58640;51.320;9.456;2022-11-20T00:58:21;99040.28;;;-5.33;90.65
70982;BME280;58640;51.320;9.456;2022-11-20T01:00:47;99037.34;;;-5.42;90.42
70982;BME280;58640;51.320;9.456;2022-11-20T01:03:12;99040.38;;;-5.34;90.70
70982;BME280;58640;51.320;9.456;2022-11-20T01:05:38;99042.50;;;-5.41;90.39
70982;BME280;58640;51.320;9.456;2022-11-20T01:08:03;99034.91;;;-5.45;91.10
70982;BME280;58640;51.320;9.456;2022-11-20T01:10:29;99036.53;;;-5.43;91.10
70982;BME280;58640;51.320;9.456;2022-11-20T01:12:54;99034.19;;;-5.47;91.30
70982;BME280;58640;51.320;9.456;2022-11-20T01:15:40;99032.06;;;-5.56;90.89
70982;BME280;58640;51.320;9.456;2022-11-20T01:18:05;99032.91;;;-5.56;91.32
70982;BME280;58640;51.320;9.456;2022-11-20T01:20:34;99025.72;;;-5.52;91.06
70982;BME280;58640;51.320;9.456;2022-11-20T01:23:00;99030.03;;;-5.51;90.34
70982;BME280;58640;51.320;9.456;2022-11-20T01:25:26;99040.41;;;-5.50;90.15
70982;BME280;58640;51.320;9.456;2022-11-20T01:27:51;99039.22;;;-5.60;91.05
70982;BME280;58640;51.320;9.456;2022-11-20T01:30:16;99035.34;;;-5.53;90.40
70982;BME280;58640;51.320;9.456;2022-11-20T01:32:42;99031.66;;;-5.49;90.11
70982;BME280;58640;51.320;9.456;2022-11-20T01:35:07;99022.44;;;-5.56;90.36
70982;BME280;58640;51.320;9.456;2022-11-20T01:37:34;99020.56;;;-5.54;90.18
70982;BME280;58640;51.320;9.456;2022-11-20T01:40:00;99022.94;;;-5.49;89.77
70982;BME280;58640;51.320;9.456;2022-11-20T01:42:25;99019.03;;;-5.58;90.07
70982;BME280;58640;51.320;9.456;2022-11-20T01:48:13;99017.88;;;-5.52;89.82
70982;BME280;58640;51.320;9.456;2022-11-20T01:50:39;99013.44;;;-5.52;89.62
70982;BME280;58640;51.320;9.456;2022-11-20T01:53:08;99008.56;;;-5.58;89.37
70982;BME280;58640;51.320;9.456;2022-11-20T01:56:01;99013.75;;;-5.72;90.03
70982;BME280;58640;51.320;9.456;2022-11-20T01:58:32;99000.19;;;-5.64;90.08
70982;BME280;58640;51.320;9.456;2022-11-20T02:00:59;99013.81;;;-5.73;90.31
70982;BME280;58640;51.320;9.456;2022-11-20T02:03:25;99023.44;;;-5.74;90.40
70982;BME280;58640;51.320;9.456;2022-11-20T02:08:21;99013.38;;;-5.66;90.18
70982;BME280;58640;51.320;9.456;2022-11-20T02:10:47;99013.56;;;-5.69;89.85
70982;BME280;58640;51.320;9.456;2022-11-20T02:13:12;99007.72;;;-5.74;90.21
70982;BME280;58640;51.320;9.456;2022-11-20T02:15:56;99007.13;;;-5.79;90.63
70982;BME280;58640;51.320;9.456;2022-11-20T02:18:21;99013.06;;;-5.75;90.92
70982;BME280;58640;51.320;9.456;2022-11-20T02:20:53;99003.44;;;-5.75;90.83
70982;BME280;58640;51.320;9.456;2022-11-20T02:25:49;99007.22;;;-5.80;90.45
70982;BME280;58640;51.320;9.456;2022-11-20T02:28:17;99002.84;;;-5.80;90.44
70982;BME280;58640;51.320;9.456;2022-11-20T02:30:43;99004.03;;;-5.70;89.92
70982;BME280;58640;51.320;9.456;2022-11-20T02:33:08;99007.56;;;-5.71;89.40
70982;BME280;58640;51.320;9.456;2022-11-20T02:38:01;98995.06;;;-5.81;90.42
70982;BME280;58640;51.320;9.456;2022-11-20T02:40:27;98993.88;;;-5.76;89.85
70982;BME280;58640;51.320;9.456;2022-11-20T02:42:53;98989.03;;;-5.82;90.21
70982;BME280;58640;51.320;9.456;2022-11-20T02:45:18;98988.81;;;-5.79;89.77
70982;BME280;58640;51.320;9.456;2022-11-20T02:47:44;98980.44;;;-5.84;89.81
70982;BME280;58640;51.320;9.456;2022-11-20T02:50:09;98978.72;;;-5.85;90.06
70982;BME280;58640;51.320;9.456;2022-11-20T02:52:34;98983.09;;;-5.85;90.18
70982;BME280;58640;51.320;9.456;2022-11-20T02:55:00;98991.03;;;-5.87;90.25
70982;BME280;58640;51.320;9.456;2022-11-20T02:57:25;98992.84;;;-5.87;90.33
70982;BME280;58640;51.320;9.456;2022-11-20T02:59:51;98992.84;;;-5.87;90.16
70982;BME280;58640;51.320;9.456;2022-11-20T03:02:16;98992.47;;;-5.81;89.91
70982;BME280;58640;51.320;9.456;2022-11-20T03:04:41;98991.97;;;-5.88;89.44
70982;BME280;58640;51.320;9.456;2022-11-20T03:07:07;98994.88;;;-5.92;89.00
70982;BME280;58640;51.320;9.456;2022-11-20T03:09:33;98996.03;;;-5.98;89.18
70982;BME280;58640;51.320;9.456;2022-11-20T03:11:58;98990.72;;;-5.96;88.01
70982;BME280;58640;51.320;9.456;2022-11-20T03:14:23;99001.34;;;-6.15;87.67
70982;BME280;58640;51.320;9.456;2022-11-20T03:16:49;99001.59;;;-6.20;88.31
70982;BME280;58640;51.320;9.456;2022-11-20T03:19:14;98994.84;;;-6.24;88.43
70982;BME280;58640;51.320;9.456;2022-11-20T03:21:39;98995.03;;;-6.11;87.72
70982;BME280;58640;51.320;9.456;2022-11-20T03:24:05;98995.03;;;-6.11;88.00
70982;BME280;58640;51.320;9.456;2022-11-20T03:26:31;98995.69;;;-6.08;87.83
70982;BME280;58640;51.320;9.456;2022-11-20T03:28:58;98993.00;;;-6.06;87.25
70982;BME280;58640;51.320;9.456;2022-11-20T03:31:29;98983.63;;;-6.10;86.54
70982;BME280;58640;51.320;9.456;2022-11-20T03:33:56;98989.28;;;-6.02;87.13
70982;BME280;58640;51.320;9.456;2022-11-20T03:36:21;98987.75;;;-6.06;87.56
70982;BME280;58640;51.320;9.456;2022-11-20T03:38:48;98985.47;;;-6.12;87.72
70982;BME280;58640;51.320;9.456;2022-11-20T03:41:16;98984.88;;;-6.17;88.02
70982;BME280;58640;51.320;9.456;2022-11-20T03:43:42;98977.97;;;-6.18;88.32
70982;BME280;58640;51.320;9.456;2022-11-20T03:46:11;98976.63;;;-6.10;88.02
70982;BME280;58640;51.320;9.456;2022-11-20T03:48:36;98971.31;;;-5.92;87.06
70982;BME280;58640;51.320;9.456;2022-11-20T03:51:16;98968.25;;;-6.00;87.19
70982;BME280;58640;51.320;9.456;2022-11-20T03:53:45;98957.28;;;-6.07;88.00
70982;BME280;58640;51.320;9.456;2022-11-20T03:56:12;98967.06;;;-6.11;88.82
70982;BME280;58640;51.320;9.456;2022-11-20T03:58:40;98965.22;;;-6.09;89.17
70982;BME280;58640;51.320;9.456;2022-11-20T04:01:19;98951.19;;;-6.08;89.19
70982;BME280;58640;51.320;9.456;2022-11-20T04:03:45;98962.44;;;-6.06;88.88
70982;BME280;58640;51.320;9.456;2022-11-20T04:06:12;98948.75;;;-6.11;89.27
70982;BME280;58640;51.320;9.456;2022-11-20T04:08:38;98939.22;;;-6.12;89.89
70982;BME280;58640;51.320;9.456;2022-11-20T04:11:17;98947.16;;;-6.13;90.09
70982;BME280;58640;51.320;9.456;2022-11-20T04:13:48;98951.63;;;-6.15;90.25
70982;BME280;58640;51.320;9.456;2022-11-20T04:16:15;98950.94;;;-6.19;89.93
70982;BME280;58640;51.320;9.456;2022-11-20T04:18:40;98951.63;;;-6.15;90.61
70982;BME280;58640;51.320;9.456;2022-11-20T04:21:06;98948.50;;;-6.06;90.38
70982;BME280;58640;51.320;9.456;2022-11-20T04:23:32;98944.63;;;-5.99;90.31
70982;BME280;58640;51.320;9.456;2022-11-20T04:28:29;98942.63;;;-5.80;89.51
70982;BME280;58640;51.320;9.456;2022-11-20T04:30:54;98940.75;;;-5.78;89.32
70982;BME280;58640;51.320;9.456;2022-11-20T04:33:19;98945.22;;;-5.80;89.33
70982;BME280;58640;51.320;9.456;2022-11-20T04:35:46;98942.09;;;-5.71;88.87
70982;BME280;58640;51.320;9.456;2022-11-20T04:38:12;98939.38;;;-5.69;88.97
70982;BME280;58640;51.320;9.456;2022-11-20T04:40:37;98948.31;;;-5.58;88.24
70982;BME280;58640;51.320;9.456;2022-11-20T04:43:03;98935.56;;;-5.64;88.37
70982;BME280;58640;51.320;9.456;2022-11-20T04:45:28;98943.44;;;-5.64;88.65
70982;BME280;58640;51.320;9.456;2022-11-20T04:47:53;98938.88;;;-5.60;88.67
70982;BME280;58640;51.320;9.456;2022-11-20T04:50:18;98934.63;;;-5.63;88.99
70982;BME280;58640;51.320;9.456;2022-11-20T04:52:44;98930.25;;;-5.62;89.41
70982;BME280;58640;51.320;9.456;2022-11-20T04:55:09;98945.69;;;-5.58;89.53
70982;BME280;58640;51.320;9.456;2022-11-20T04:57:34;98943.84;;;-5.56;89.47
70982;BME280;58640;51.320;9.456;2022-11-20T04:59:59;98946.19;;;-5.51;89.90
70982;BME280;58640;51.320;9.456;2022-11-20T05:02:25;98940.69;;;-5.47;90.12
70982;BME280;58640;51.320;9.456;2022-11-20T05:04:50;98931.13;;;-5.48;90.02
70982;BME280;58640;51.320;9.456;2022-11-20T05:07:16;98936.56;;;-5.51;90.52
70982;BME280;58640;51.320;9.456;2022-11-20T05:09:41;98921.91;;;-5.39;89.96
70982;BME280;58640;51.320;9.456;2022-11-20T05:12:08;98927.75;;;-5.50;89.92
70982;BME280;58640;51.320;9.456;2022-11-20T05:14:33;98924.59;;;-5.41;89.70
70982;BME280;58640;51.320;9.456;2022-11-20T05:16:59;98929.09;;;-5.43;90.11
70982;BME280;58640;51.320;9.456;2022-11-20T05:19:24;98930.78;;;-5.42;89.13
70982;BME280;58640;51.320;9.456;2022-11-20T05:21:49;98935.25;;;-5.44;89.62
70982;BME280;58640;51.320;9.456;2022-11-20T05:24:15;98937.69;;;-5.41;89.67
70982;BME280;58640;51.320;9.456;2022-11-20T05:26:40;98939.97;;;-5.35;89.73
70982;BME280;58640;51.320;9.456;2022-11-20T05:29:05;98931.25;;;-5.35;89.61
70982;BME280;58640;51.320;9.456;2022-11-20T05:31:31;98928.84;;;-5.24;89.27
70982;BME280;58640;51.320;9.456;2022-11-20T05:33:56;98937.00;;;-5.29;88.69
70982;BME280;58640;51.320;9.456;2022-11-20T05:36:22;98927.28;;;-5.13;88.41
70982;BME280;58640;51.320;9.456;2022-11-20T05:38:47;98932.69;;;-5.30;88.66
70982;BME280;58640;51.320;9.456;2022-11-20T05:41:13;98928.72;;;-5.37;89.15
70982;BME280;58640;51.320;9.456;2022-11-20T05:43:41;98929.78;;;-5.39;89.07
70982;BME280;58640;51.320;9.456;2022-11-20T05:46:08;98928.34;;;-5.45;89.46
70982;BME280;58640;51.320;9.456;2022-11-20T05:48:35;98928.97;;;-5.55;89.38
70982;BME280;58640;51.320;9.456;2022-11-20T05:51:03;98932.09;;;-5.49;89.83
70982;BME280;58640;51.320;9.456;2022-11-20T05:53:28;98934.13;;;-5.54;89.85
70982;BME280;58640;51.320;9.456;2022-11-20T05:56:02;98928.97;;;-5.55;89.87
70982;BME280;58640;51.320;9.456;2022-11-20T05:58:29;98927.75;;;-5.50;89.72
70982;BME280;58640;51.320;9.456;2022-11-20T06:00:54;98933.19;;;-5.53;89.63
70982;BME280;58640;51.320;9.456;2022-11-20T06:03:20;98929.28;;;-5.46;89.47
70982;BME280;58640;51.320;9.456;2022-11-20T06:05:45;98929.69;;;-5.38;88.86
70982;BME280;58640;51.320;9.456;2022-11-20T06:08:11;98933.75;;;-5.48;88.83
70982;BME280;58640;51.320;9.456;2022-11-20T06:10:36;98932.31;;;-5.53;89.77
70982;BME280;58640;51.320;9.456;2022-11-20T06:13:01;98930.16;;;-5.61;89.26
70982;BME280;58640;51.320;9.456;2022-11-20T06:15:26;98923.81;;;-5.57;89.27
70982;BME280;58640;51.320;9.456;2022-11-20T06:17:53;98922.53;;;-5.50;88.81
70982;BME280;58640;51.320;9.456;2022-11-20T06:20:19;98922.44;;;-5.48;89.13
70982;BME280;58640;51.320;9.456;2022-11-20T06:22:44;98921.34;;;-5.44;88.94
70982;BME280;58640;51.320;9.456;2022-11-20T06:25:09;98921.41;;;-5.46;88.98
70982;BME280;58640;51.320;9.456;2022-11-20T06:27:34;98927.38;;;-5.44;88.48
70982;BME280;58640;51.320;9.456;2022-11-20T06:30:00;98924.34;;;-5.36;88.60
70982;BME280;58640;51.320;9.456;2022-11-20T06:32:25;98928.06;;;-5.40;88.88
70982;BME280;58640;51.320;9.456;2022-11-20T06:34:50;98936.19;;;-5.45;89.40
70982;BME280;58640;51.320;9.456;2022-11-20T06:37:16;98923.78;;;-5.41;89.24
70982;BME280;58640;51.320;9.456;2022-11-20T06:39:41;98926.97;;;-5.36;88.94
70982;BME280;58640;51.320;9.456;2022-11-20T06:42:06;98922.94;;;-5.28;88.61
70982;BME280;58640;51.320;9.456;2022-11-20T06:44:31;98920.44;;;-5.15;88.34
70982;BME280;58640;51.320;9.456;2022-11-20T06:46:57;98917.38;;;-5.22;88.65
70982;BME280;58640;51.320;9.456;2022-11-20T06:49:22;98921.75;;;-5.22;88.72
70982;BME280;58640;51.320;9.456;2022-11-20T06:51:47;98923.69;;;-5.26;89.10
70982;BME280;58640;51.320;9.456;2022-11-20T06:54:13;98925.38;;;-5.25;89.11
70982;BME280;58640;51.320;9.456;2022-11-20T06:56:38;98933.00;;;-5.06;88.45
70982;BME280;58640;51.320;9.456;2022-11-20T06:59:05;98937.97;;;-5.02;88.02
70982;BME280;58640;51.320;9.456;2022-11-20T07:01:30;98930.69;;;-4.97;87.67
70982;BME280;58640;51.320;9.456;2022-11-20T07:03:56;98921.00;;;-4.96;87.87
70982;BME280;58640;51.320;9.456;2022-11-20T07:06:21;98924.47;;;-5.10;88.93
70982;BME280;58640;51.320;9.456;2022-11-20T07:08:46;98918.28;;;-5.09;88.64
70982;BME280;58640;51.320;9.456;2022-11-20T07:11:12;98917.66;;;-5.12;88.63
70982;BME280;58640;51.320;9.456;2022-11-20T07:13:37;98916.63;;;-4.96;87.79
70982;BME280;58640;51.320;9.456;2022-11-20T07:16:05;98918.28;;;-5.09;88.65
70982;BME280;58640;51.320;9.456;2022-11-20T07:18:32;98925.44;;;-4.97;88.55
70982;BME280;58640;51.320;9.456;2022-11-20T07:21:04;98928.97;;;-4.98;88.52
70982;BME280;58640;51.320;9.456;2022-11-20T07:23:31;98933.78;;;-5.04;88.78
70982;BME280;58640;51.320;9.456;2022-11-20T07:25:56;98929.94;;;-4.99;89.24
70982;BME280;58640;51.320;9.456;2022-11-20T07:28:22;98926.16;;;-5.09;89.35
70982;BME280;58640;51.320;9.456;2022-11-20T07:30:51;98929.16;;;-5.01;89.53
70982;BME280;58640;51.320;9.456;2022-11-20T07:33:16;98926.06;;;-5.07;88.96
70982;BME280;58640;51.320;9.456;2022-11-20T07:35:42;98939.16;;;-5.07;89.78
70982;BME280;58640;51.320;9.456;2022-11-20T07:38:07;98937.31;;;-5.05;89.76
70982;BME280;58640;51.320;9.456;2022-11-20T07:40:33;98935.84;;;-4.95;89.30
70982;BME280;58640;51.320;9.456;2022-11-20T07:42:58;98937.50;;;-4.80;89.18
70982;BME280;58640;51.320;9.456;2022-11-20T07:45:24;98941.94;;;-4.67;88.97
70982;BME280;58640;51.320;9.456;2022-11-20T07:47:50;98941.47;;;-4.59;89.00
70982;BME280;58640;51.320;9.456;2022-11-20T07:50:16;98945.31;;;-4.51;88.63
70982;BME280;58640;51.320;9.456;2022-11-20T07:52:41;98945.44;;;-4.11;86.93
70982;BME280;58640;51.320;9.456;2022-11-20T07:55:08;98940.78;;;-4.20;86.93
70982;BME280;58640;51.320;9.456;2022-11-20T07:57:34;98940.50;;;-4.30;87.87
70982;BME280;58640;51.320;9.456;2022-11-20T07:59:59;98955.59;;;-4.33;88.88
70982;BME280;58640;51.320;9.456;2022-11-20T08:02:24;98948.19;;;-4.27;89.01
70982;BME280;58640;51.320;9.456;2022-11-20T08:04:50;98951.56;;;-4.25;89.60
70982;BME280;58640;51.320;9.456;2022-11-20T08:07:15;98947.50;;;-4.16;89.24
70982;BME280;58640;51.320;9.456;2022-11-20T08:09:40;98939.97;;;-4.08;88.85
70982;BME280;58640;51.320;9.456;2022-11-20T08:12:06;98941.50;;;-4.04;88.46
70982;BME280;58640;51.320;9.456;2022-11-20T08:14:50;98944.22;;;-4.06;88.98
70982;BME280;58640;51.320;9.456;2022-11-20T08:17:15;98935.28;;;-4.03;88.91
70982;BME280;58640;51.320;9.456;2022-11-20T08:19:40;98952.59;;;-4.13;88.93
70982;BME280;58640;51.320;9.456;2022-11-20T08:22:06;98957.22;;;-4.31;90.04
70982;BME280;58640;51.320;9.456;2022-11-20T08:24:31;98954.84;;;-4.21;90.09
70982;BME280;58640;51.320;9.456;2022-11-20T08:26:59;98956.13;;;-4.14;90.33
70982;BME280;58640;51.320;9.456;2022-11-20T08:29:27;98950.69;;;-3.97;89.11
70982;BME280;58640;51.320;9.456;2022-11-20T08:31:53;98961.19;;;-3.97;89.25
70982;BME280;58640;51.320;9.456;2022-11-20T08:34:18;98949.78;;;-3.84;88.80
70982;BME280;58640;51.320;9.456;2022-11-20T08:36:43;98946.44;;;-3.73;88.53
70982;BME280;58640;51.320;9.456;2022-11-20T08:39:11;98950.88;;;-3.74;88.52
70982;BME280;58640;51.320;9.456;2022-11-20T08:41:37;98955.25;;;-3.48;86.97
70982;BME280;58640;51.320;9.456;2022-11-20T08:44:03;98958.75;;;-3.47;87.36
70982;BME280;58640;51.320;9.456;2022-11-20T08:46:34;98955.97;;;-3.85;88.61
70982;BME280;58640;51.320;9.456;2022-11-20T08:49:02;98960.47;;;-3.60;88.06
70982;BME280;58640;51.320;9.456;2022-11-20T08:51:28;98958.63;;;-3.46;87.14
70982;BME280;58640;51.320;9.456;2022-11-20T08:53:53;98967.19;;;-3.42;87.13
70982;BME280;58640;51.320;9.456;2022-11-20T08:56:18;98960.59;;;-3.35;86.63
70982;BME280;58640;51.320;9.456;2022-11-20T08:58:43;98961.31;;;-3.33;86.88
70982;BME280;58640;51.320;9.456;2022-11-20T09:01:09;98961.31;;;-3.33;85.97
70982;BME280;58640;51.320;9.456;2022-11-20T09:03:35;98964.56;;;-3.30;86.17
70982;BME280;58640;51.320;9.456;2022-11-20T09:06:02;98972.69;;;-3.20;85.81
70982;BME280;58640;51.320;9.456;2022-11-20T09:08:28;98969.91;;;-3.44;86.90
70982;BME280;58640;51.320;9.456;2022-11-20T09:10:54;98967.94;;;-3.40;86.97
70982;BME280;58640;51.320;9.456;2022-11-20T09:13:24;98963.75;;;-3.57;87.70
70982;BME280;58640;51.320;9.456;2022-11-20T09:16:07;98979.06;;;-3.63;88.39
70982;BME280;58640;51.320;9.456;2022-11-20T09:18:33;98970.25;;;-3.36;87.75
70982;BME280;58640;51.320;9.456;2022-11-20T09:21:04;98958.19;;;-3.26;86.38
70982;BME280;58640;51.320;9.456;2022-11-20T09:23:35;98959.94;;;-3.39;86.43
70982;BME280;58640;51.320;9.456;2022-11-20T09:26:11;98954.63;;;-3.12;86.20
70982;BME280;58640;51.320;9.456;2022-11-20T09:28:37;98965.25;;;-3.14;86.67
70982;BME280;58640;51.320;9.456;2022-11-20T09:31:22;98971.34;;;-3.13;86.92
70982;BME280;58640;51.320;9.456;2022-11-20T09:33:48;98965.88;;;-3.23;86.55
70982;BME280;58640;51.320;9.456;2022-11-20T09:36:13;98962.72;;;-3.15;86.09
70982;BME280;58640;51.320;9.456;2022-11-20T09:38:39;98973.38;;;-3.04;86.49
70982;BME280;58640;51.320;9.456;2022-11-20T09:41:06;98970.63;;;-3.03;85.48
70982;BME280;58640;51.320;9.456;2022-11-20T09:54:27;98968.75;;;-2.63;85.08
70982;BME280;58640;51.320;9.456;2022-11-20T09:57:02;98964.44;;;-2.89;85.63
70982;BME280;58640;51.320;9.456;2022-11-20T10:02:00;98958.22;;;-3.01;86.45
70982;BME280;58640;51.320;9.456;2022-11-20T10:04:27;98955.19;;;-2.82;86.27
70982;BME280;58640;51.320;9.456;2022-11-20T10:07:04;98960.53;;;-2.71;85.94
70982;BME280;58640;51.320;9.456;2022-11-20T10:09:34;98960.88;;;-2.88;86.70
70982;BME280;58640;51.320;9.456;2022-11-20T10:14:45;98956.13;;;-2.83;86.46
70982;BME280;58640;51.320;9.456;2022-11-20T10:25:39;98954.25;;;-2.07;83.47
70982;BME280;58640;51.320;9.456;2022-11-20T10:30:56;98951.22;;;-2.14;84.24
70982;BME280;58640;51.320;9.456;2022-11-20T10:33:24;98950.84;;;-2.20;83.06
70982;BME280;58640;51.320;9.456;2022-11-20T10:36:29;98942.97;;;-1.97;83.16
70982;BME280;58640;51.320;9.456;2022-11-20T10:39:03;98940.91;;;-1.57;81.75
70982;BME280;58640;51.320;9.456;2022-11-20T10:41:37;98929.75;;;-1.61;81.00
70982;BME280;58640;51.320;9.456;2022-11-20T10:46:36;98933.88;;;-1.69;82.78
70982;BME280;58640;51.320;9.456;2022-11-20T10:49:09;98921.22;;;-1.88;83.57
70982;BME280;58640;51.320;9.456;2022-11-20T10:52:00;98916.56;;;-1.84;83.33
70982;BME280;58640;51.320;9.456;2022-11-20T10:55:10;98917.31;;;-1.82;83.11
70982;BME280;58640;51.320;9.456;2022-11-20T11:00:21;98914.66;;;-1.82;83.95
70982;BME280;58640;51.320;9.456;2022-11-20T11:02:53;98906.19;;;-1.75;82.79
70982;BME280;58640;51.320;9.456;2022-11-20T11:07:46;98897.25;;;-1.61;83.04
70982;BME280;58640;51.320;9.456;2022-11-20T11:10:24;98890.38;;;-1.75;82.25
70982;BME280;58640;51.320;9.456;2022-11-20T11:12:51;98891.38;;;-1.41;81.83
70982;BME280;58640;51.320;9.456;2022-11-20T11:15:29;98897.59;;;-1.89;83.07
70982;BME280;58640;51.320;9.456;2022-11-20T11:17:58;98899.16;;;-1.39;80.36
70982;BME280;58640;51.320;9.456;2022-11-20T11:20:25;98897.09;;;-1.47;81.04
70982;BME280;58640;51.320;9.456;2022-11-20T11:22:53;98896.72;;;-1.54;82.32
70982;BME280;58640;51.320;9.456;2022-11-20T11:25:31;98890.88;;;-1.70;82.59
70982;BME280;58640;51.320;9.456;2022-11-20T11:28:03;98892.63;;;-1.81;83.04
70982;BME280;58640;51.320;9.456;2022-11-20T11:30:40;98880.47;;;-1.71;82.81
70982;BME280;58640;51.320;9.456;2022-11-20T11:33:09;98875.25;;;-1.84;83.89
70982;BME280;58640;51.320;9.456;2022-11-20T11:35:47;98868.72;;;-1.67;82.89
70982;BME280;58640;51.320;9.456;2022-11-20T11:38:16;98873.53;;;-1.61;83.06
70982;BME280;58640;51.320;9.456;2022-11-20T11:40:43;98873.09;;;-1.55;83.10
70982;BME280;58640;51.320;9.456;2022-11-20T11:43:28;98875.19;;;-1.71;83.29
70982;BME280;58640;51.320;9.456;2022-11-20T11:46:24;98876.44;;;-1.53;82.68
70982;BME280;58640;51.320;9.456;2022-11-20T11:51:39;98876.16;;;-1.37;81.64
70982;BME280;58640;51.320;9.456;2022-11-20T11:54:34;98870.84;;;-1.48;81.29
70982;BME280;58640;51.320;9.456;2022-11-20T11:57:05;98866.03;;;-1.78;82.72
70982;BME280;58640;51.320;9.456;2022-11-20T11:59:52;98859.59;;;-1.74;83.96
70982;BME280;58640;51.320;9.456;2022-11-20T12:05:23;98852.38;;;-1.48;81.98
70982;BME280;58640;51.320;9.456;2022-11-20T12:07:54;98863.56;;;-1.69;84.10
70982;BME280;58640;51.320;9.456;2022-11-20T12:16:00;98850.19;;;-1.55;83.81
70982;BME280;58640;51.320;9.456;2022-11-20T12:18:26;98841.72;;;-1.47;83.43
70982;BME280;58640;51.320;9.456;2022-11-20T12:21:18;98843.00;;;-1.53;84.30
70982;BME280;58640;51.320;9.456;2022-11-20T12:24:13;98832.59;;;-1.43;84.93
70982;BME280;58640;51.320;9.456;2022-11-20T12:43:19;98840.88;;;-1.48;86.02
70982;BME280;58640;51.320;9.456;2022-11-20T12:51:34;98835.59;;;-1.48;86.03
70982;BME280;58640;51.320;9.456;2022-11-20T12:56:57;98827.97;;;-1.74;87.53
70982;BME280;58640;51.320;9.456;2022-11-20T12:59:33;98818.94;;;-1.83;88.35
70982;BME280;58640;51.320;9.456;2022-11-20T13:07:35;98817.81;;;-1.68;88.24
70982;BME280;58640;51.320;9.456;2022-11-20T13:10:02;98813.63;;;-1.59;87.92
70982;BME280;58640;51.320;9.456;2022-11-20T13:12:46;98813.00;;;-1.63;88.50
70982;BME280;58640;51.320;9.456;2022-11-20T13:15:34;98813.09;;;-1.75;89.63
70982;BME280;58640;51.320;9.456;2022-11-20T13:18:03;98809.41;;;-1.73;89.55
70982;BME280;58640;51.320;9.456;2022-11-20T13:20:31;98803.53;;;-1.65;88.93
70982;BME280;58640;51.320;9.456;2022-11-20T13:22:58;98806.78;;;-1.62;88.91
70982;BME280;58640;51.320;9.456;2022-11-20T13:27:49;98799.56;;;-1.71;89.39
70982;BME280;58640;51.320;9.456;2022-11-20T13:30:17;98798.34;;;-1.78;90.27
70982;BME280;58640;51.320;9.456;2022-11-20T13:32:55;98801.72;;;-1.76;90.47
70982;BME280;58640;51.320;9.456;2022-11-20T13:35:31;98794.50;;;-1.74;90.14
70982;BME280;58640;51.320;9.456;2022-11-20T13:38:06;98798.13;;;-1.75;90.13
70982;BME280;58640;51.320;9.456;2022-11-20T13:40:33;98789.38;;;-1.75;91.28
70982;BME280;58640;51.320;9.456;2022-11-20T13:43:21;98785.66;;;-1.73;92.50
70982;BME280;58640;51.320;9.456;2022-11-20T13:45:56;98776.72;;;-1.59;91.71
70982;BME280;58640;51.320;9.456;2022-11-20T13:48:23;98771.56;;;-1.50;90.82
70982;BME280;58640;51.320;9.456;2022-11-20T13:51:00;98773.97;;;-1.47;90.97
70982;BME280;58640;51.320;9.456;2022-11-20T13:53:33;98775.19;;;-1.39;90.90
70982;BME280;58640;51.320;9.456;2022-11-20T13:56:17;98775.09;;;-1.27;90.11
70982;BME280;58640;51.320;9.456;2022-11-20T13:59:10;98761.75;;;-1.36;90.35
70982;BME280;58640;51.320;9.456;2022-11-20T14:01:39;98765.94;;;-1.45;90.89
70982;BME280;58640;51.320;9.456;2022-11-20T14:04:08;98771.44;;;-1.48;91.20
70982;BME280;58640;51.320;9.456;2022-11-20T14:06:42;98766.28;;;-1.50;90.88
70982;BME280;58640;51.320;9.456;2022-11-20T14:09:28;98763.78;;;-1.51;91.85
70982;BME280;58640;51.320;9.456;2022-11-20T14:11:54;98751.44;;;-1.51;91.90
70982;BME280;58640;51.320;9.456;2022-11-20T14:14:22;98753.47;;;-1.54;93.01
70982;BME280;58640;51.320;9.456;2022-11-20T14:16:49;98745.06;;;-1.59;93.42
70982;BME280;58640;51.320;9.456;2022-11-20T14:21:47;98745.53;;;-1.65;94.30
70982;BME280;58640;51.320;9.456;2022-11-20T14:24:13;98745.91;;;-1.70;93.95
70982;BME280;58640;51.320;9.456;2022-11-20T14:26:43;98738.72;;;-1.68;94.05
70982;BME280;58640;51.320;9.456;2022-11-20T14:29:16;98731.88;;;-1.59;93.06
70982;BME280;58640;51.320;9.456;2022-11-20T14:31:43;98726.22;;;-1.66;93.76
70982;BME280;58640;51.320;9.456;2022-11-20T14:34:27;98726.34;;;-1.67;94.04
70982;BME280;58640;51.320;9.456;2022-11-20T14:36:57;98716.91;;;-1.59;93.77
70982;BME280;58640;51.320;9.456;2022-11-20T14:39:34;98715.00;;;-1.57;93.36
70982;BME280;58640;51.320;9.456;2022-11-20T14:42:00;98718.47;;;-1.56;93.15
70982;BME280;58640;51.320;9.456;2022-11-20T14:44:33;98714.03;;;-1.56;93.15